Time;durP1;ratioP1;P1;durP2;ratioP2;P2;SDS_P1;SDS_P2;PMS_P1;PMS_P2;Temp;Humidity;BMP_temperature;BMP_pressure;BME280_temperature;BME280_humidity;BME280_pressure;Samples;Min_cycle;Max_cycle;Signal;HPM_P1;HPM_P2
2023/08/13 00:04:23;;;;;;;3.03;2.42;;;;;;;-145.68;100.00;73180.00;10371003;28;20604;-68
2023/08/13 00:09:23;;;;;;;3.47;2.17;;;;;;;-145.68;100.00;73144.03;10370643;28;20217;-69
2023/08/13 00:14:24;;;;;;;3.28;2.03;;;;;;;-145.68;100.00;73140.03;10370289;28;20192;-68
2023/08/13 00:19:24;;;;;;;2.60;2.10;;;;;;;-145.68;100.00;73148.03;10371171;28;20225;-69
2023/08/13 00:24:24;;;;;;;2.63;2.05;;;;;;;-145.68;100.00;73128.03;10370574;28;20193;-69
2023/08/13 00:29:25;;;;;;;3.78;2.00;;;;;;;-145.68;100.00;73116.03;10370345;28;20283;-69
2023/08/13 00:34:25;;;;;;;3.25;2.00;;;;;;;-145.68;100.00;73112.03;10368945;28;20201;-69
2023/08/13 00:39:26;;;;;;;2.95;2.45;;;;;;;-145.68;100.00;73132.03;10370176;28;20214;-69
2023/08/13 00:44:26;;;;;;;2.47;2.28;;;;;;;-145.68;100.00;73134.03;10370061;28;20185;-69
2023/08/13 00:49:26;;;;;;;3.50;2.50;;;;;;;-145.68;100.00;73154.03;10368973;28;20275;-69
2023/08/13 00:54:27;;;;;;;3.55;2.40;;;;;;;-145.68;100.00;73148.03;10375778;28;20198;-69
2023/08/13 00:59:28;;;;;;;5.80;2.90;;;;;;;-145.68;100.00;73178.00;10376850;28;20209;-69
2023/08/13 01:04:29;;;;;;;5.85;2.50;;;;;;;-145.68;100.00;73207.97;10422485;28;20196;-69
2023/08/13 01:10:00;;;;;;;4.63;2.50;;;;;;;-145.68;100.00;73239.97;10417704;28;20358;-69
2023/08/13 01:15:03;;;;;;;4.80;2.60;;;;;;;-145.68;100.00;73239.97;10367277;28;20283;-69
2023/08/13 01:20:07;;;;;;;5.35;2.78;;;;;;;-145.68;100.00;73227.97;10374703;28;20240;-69
2023/08/13 01:25:08;;;;;;;4.80;2.58;;;;;;;-145.68;100.00;73231.97;10374688;28;20185;-69
2023/08/13 01:30:14;;;;;;;5.75;2.47;;;;;;;-145.68;100.00;73249.94;10374697;28;20212;-69
2023/08/13 01:35:14;;;;;;;4.97;2.53;;;;;;;-145.68;100.00;73255.94;10374649;28;20954;-69
2023/08/13 01:40:15;;;;;;;6.20;2.65;;;;;;;-145.68;100.00;73257.94;10374318;28;20332;-69
2023/08/13 01:45:16;;;;;;;5.50;3.25;;;;;;;-145.68;100.00;73239.97;10374379;28;20197;-70
2023/08/13 01:50:16;;;;;;;3.20;2.70;;;;;;;-145.68;100.00;73223.97;10374922;28;20699;-70
2023/08/13 01:55:17;;;;;;;4.82;2.72;;;;;;;-145.68;100.00;73221.97;10375258;28;20201;-70
2023/08/13 02:00:18;;;;;;;5.75;2.63;;;;;;;-145.68;100.00;73225.97;10373374;28;20679;-69
2023/08/13 02:05:19;;;;;;;5.55;2.72;;;;;;;-145.68;100.00;73267.94;10372096;28;20288;-69
2023/08/13 02:10:19;;;;;;;3.63;2.60;;;;;;;-145.68;100.00;73267.94;10373892;28;20641;-69
2023/08/13 02:15:20;;;;;;;4.35;2.70;;;;;;;-145.68;100.00;73333.91;10373517;28;20199;-70
2023/08/13 02:20:20;;;;;;;4.07;2.95;;;;;;;-145.68;100.00;73369.88;10389102;28;20232;-70
2023/08/13 02:25:20;;;;;;;4.15;2.65;;;;;;;-145.68;100.00;73355.88;10394697;28;20199;-70
2023/08/13 02:30:21;;;;;;;3.38;2.90;;;;;;;-145.68;100.00;73343.88;10413569;28;20220;-69
2023/08/13 02:35:21;;;;;;;5.40;3.28;;;;;;;-145.68;100.00;73371.88;10379638;28;20193;-70
2023/08/13 02:40:22;;;;;;;3.25;2.95;;;;;;;-145.68;100.00;73381.88;10372844;28;20197;-69
2023/08/13 02:45:22;;;;;;;3.15;2.85;;;;;;;-145.68;100.00;73363.88;10372123;28;20705;-70
2023/08/13 02:50:22;;;;;;;6.18;2.95;;;;;;;-145.68;100.00;73347.88;10406327;28;20254;-69
2023/08/13 02:55:23;;;;;;;5.63;3.45;;;;;;;-145.68;100.00;73395.84;10389511;28;20201;-70
2023/08/13 03:00:23;;;;;;;5.90;3.33;;;;;;;-145.68;100.00;73423.84;10372063;28;20216;-70
2023/08/13 03:05:24;;;;;;;6.05;3.28;;;;;;;-145.68;100.00;73415.84;10370994;28;20201;-69
2023/08/13 03:10:25;;;;;;;6.07;3.47;;;;;;;-145.68;100.00;73435.84;10371582;28;20303;-70
2023/08/13 03:15:25;;;;;;;4.15;3.20;;;;;;;-145.68;100.00;73463.81;10370724;28;20205;-70
2023/08/13 03:20:27;;;;;;;4.68;3.20;;;;;;;-145.68;100.00;73447.81;10370110;28;20225;-70
2023/08/13 03:25:27;;;;;;;6.30;3.67;;;;;;;-145.68;100.00;73461.81;10379524;28;20208;-70
2023/08/13 03:30:28;;;;;;;4.95;3.55;;;;;;;-145.68;100.00;73453.81;10409873;28;20286;-69
2023/08/13 03:35:28;;;;;;;4.95;3.05;;;;;;;-145.68;100.00;73451.81;10409900;28;20196;-70
2023/08/13 03:40:29;;;;;;;5.57;3.50;;;;;;;-145.68;100.00;73449.81;10410186;28;20726;-70
2023/08/13 03:45:30;;;;;;;6.28;3.50;;;;;;;-145.68;100.00;73435.84;10407425;28;20185;-70
2023/08/13 03:50:31;;;;;;;4.50;4.07;;;;;;;-145.68;100.00;73453.81;10397846;28;20275;-70
2023/08/13 03:55:32;;;;;;;5.28;3.95;;;;;;;-145.68;100.00;73465.81;10410434;28;20215;-70
2023/08/13 04:00:33;;;;;;;4.43;3.53;;;;;;;-145.68;100.00;73465.81;10409902;28;20685;-70
2023/08/13 04:05:34;;;;;;;6.38;3.85;;;;;;;-145.68;100.00;73477.81;10409807;28;20189;-70
2023/08/13 04:10:35;;;;;;;5.45;4.13;;;;;;;-145.68;100.00;73473.81;10371355;28;20571;-70
2023/08/13 04:15:35;;;;;;;5.78;3.65;;;;;;;-145.68;100.00;73479.81;10370132;28;20185;-70
2023/08/13 04:20:36;;;;;;;5.50;3.42;;;;;;;-145.68;100.00;73477.81;10369245;28;20193;-70
2023/08/13 04:25:36;;;;;;;7.32;3.67;;;;;;;-145.68;100.00;73473.81;10354171;28;20193;-70
2023/08/13 04:30:37;;;;;;;5.43;3.78;;;;;;;-145.68;100.00;73463.81;10378215;28;20279;-70
2023/08/13 04:35:37;;;;;;;4.90;3.63;;;;;;;-145.68;100.00;73449.81;10377611;28;20191;-70
2023/08/13 04:40:38;;;;;;;4.90;3.38;;;;;;;-145.68;100.00;73415.84;10395157;28;20208;-70
2023/08/13 04:45:40;;;;;;;4.15;3.67;;;;;;;-145.68;100.00;73387.88;10443066;28;20184;-70
2023/08/13 04:50:42;;;;;;;6.60;3.75;;;;;;;-145.68;100.00;73381.88;10430027;28;20227;-70
2023/08/13 04:55:43;;;;;;;6.53;4.05;;;;;;;-145.68;100.00;73353.88;10435350;28;20548;-69
2023/08/13 05:00:44;;;;;;;4.10;2.97;;;;;;;-145.68;100.00;73341.91;10381962;28;20328;-70
2023/08/13 05:05:45;;;;;;;4.70;2.95;;;;;;;-145.68;100.00;73321.91;10385441;28;20686;-70
2023/08/13 05:10:45;;;;;;;4.93;2.97;;;;;;;-145.68;100.00;73291.94;10382387;28;20209;-70
2023/08/13 05:15:46;;;;;;;6.70;2.60;;;;;;;-145.68;100.00;73227.97;10358545;28;20566;-71
2023/08/13 05:20:47;;;;;;;6.53;3.20;;;;;;;-145.68;100.00;73180.00;10465212;22;20248;-66
2023/08/13 05:25:47;;;;;;;4.95;2.47;;;;;;;-145.68;100.00;73156.00;10455345;28;20188;-67
2023/08/13 05:30:48;;;;;;;4.15;3.05;;;;;;;-145.68;100.00;73112.03;10419568;28;20223;-67
2023/08/13 05:35:48;;;;;;;3.72;3.13;;;;;;;-145.68;100.00;73086.06;10414468;28;20564;-67
2023/08/13 05:40:49;;;;;;;6.40;3.97;;;;;;;-145.68;100.00;73108.06;10407744;28;20211;-67
2023/08/13 05:45:49;;;;;;;4.82;3.80;;;;;;;-145.68;100.00;73048.09;10380699;28;20189;-66
2023/08/13 05:50:50;;;;;;;6.75;3.90;;;;;;;-145.68;100.00;73056.09;10380706;28;20224;-68
2023/08/13 05:55:51;;;;;;;7.75;4.10;;;;;;;-145.68;100.00;73034.09;10413904;28;20184;-67
2023/08/13 06:00:51;;;;;;;4.78;3.63;;;;;;;-145.68;100.00;72992.13;10414354;28;20209;-67
2023/08/13 06:05:51;;;;;;;7.03;3.42;;;;;;;-145.68;100.00;72916.19;10415111;28;20726;-67
2023/08/13 06:10:52;;;;;;;4.05;3.22;;;;;;;-145.68;100.00;72892.22;10414791;28;20711;-67
2023/08/13 06:15:52;;;;;;;4.40;3.10;;;;;;;-145.68;93.02;72870.22;10410529;28;20686;-68
2023/08/13 06:20:53;;;;;;;3.70;3.10;;;;;;;-145.68;93.14;72940.16;10414339;28;20322;-68
2023/08/13 06:25:53;;;;;;;6.13;3.00;;;;;;;-145.68;87.71;72880.22;10413322;28;20205;-68
2023/08/13 06:30:53;;;;;;;2.70;2.50;;;;;;;-145.68;86.71;72824.25;10413937;28;20694;-68
2023/08/13 06:35:54;;;;;;;2.90;2.60;;;;;;;-145.68;78.29;72752.31;10412907;28;20748;-68
2023/08/13 06:40:54;;;;;;;5.57;3.05;;;;;;;-145.68;75.94;72764.31;10413600;28;20840;-68
2023/08/13 06:45:55;;;;;;;4.90;2.90;;;;;;;-145.68;77.63;72756.31;10408651;28;20607;-68
2023/08/13 06:50:56;;;;;;;6.35;3.13;;;;;;;-145.68;79.26;72798.28;10409556;28;20228;-67
2023/08/13 06:56:00;;;;;;;3.78;3.22;;;;;;;-145.68;80.57;72818.25;10411975;28;20616;-67
2023/08/13 07:01:02;;;;;;;6.35;2.85;;;;;;;-145.68;78.46;72748.31;10413034;28;20204;-67
2023/08/13 07:06:03;;;;;;;5.65;3.10;;;;;;;-145.68;76.12;72768.31;10411249;28;20196;-68
2023/08/13 07:11:03;;;;;;;4.57;2.58;;;;;;;-145.68;72.40;72664.38;10406986;28;20706;-67
2023/08/13 07:16:04;;;;;;;3.80;3.17;;;;;;;-145.68;74.35;72744.31;10390305;28;20189;-67
2023/08/13 07:21:06;;;;;;;4.07;2.92;;;;;;;-145.68;67.45;72608.44;10410430;28;20241;-67
2023/08/13 07:26:06;;;;;;;5.53;2.97;;;;;;;-145.68;62.32;72512.50;10395627;28;20235;-68
2023/08/13 07:31:06;;;;;;;4.38;2.60;;;;;;;-145.68;58.08;72362.66;10394767;28;20212;-67
2023/08/13 07:36:07;;;;;;;2.83;2.53;;;;;;;-145.68;56.71;72270.72;10410930;28;20199;-67
2023/08/13 07:41:07;;;;;;;4.70;2.50;;;;;;;-145.68;54.67;72238.75;10411619;28;20726;-67
2023/08/13 07:46:08;;;;;;;6.78;2.72;;;;;;;-145.68;57.64;72454.56;10388819;28;20981;-67
2023/08/13 07:51:08;;;;;;;4.00;2.78;;;;;;;-145.68;58.09;72384.63;10370387;28;20720;-68
2023/08/13 07:56:09;;;;;;;4.93;2.30;;;;;;;-145.68;55.11;72264.72;10395976;28;20275;-66
2023/08/13 08:01:09;;;;;;;2.70;2.13;;;;;;;-145.68;57.08;72440.56;10395198;28;20295;-67
2023/08/13 08:06:12;;;;;;;4.05;2.30;;;;;;;-145.68;56.20;72326.69;10401779;28;20203;-68
2023/08/13 08:11:12;;;;;;;4.63;2.35;;;;;;;-145.68;51.16;72272.72;10419597;28;20216;-68
2023/08/13 08:16:13;;;;;;;5.20;1.98;;;;;;;-145.68;52.24;72374.63;10418246;28;20581;-67
2023/08/13 08:21:13;;;;;;;2.08;1.90;;;;;;;-145.68;53.54;72208.78;10419129;28;20228;-67
2023/08/13 08:26:13;;;;;;;2.50;2.30;;;;;;;-145.68;54.66;72362.66;10418008;28;20285;-67
2023/08/13 08:31:14;;;;;;;2.60;2.40;;;;;;;-145.68;58.48;72454.56;10417811;28;20723;-68
2023/08/13 08:36:14;;;;;;;5.53;2.45;;;;;;;-145.68;55.39;72390.63;10418706;28;20215;-69
2023/08/13 08:41:15;;;;;;;2.50;2.15;;;;;;;-145.68;54.97;72446.56;10417070;28;20207;-68
2023/08/13 08:46:16;;;;;;;2.60;2.35;;;;;;;-145.68;55.55;72424.59;10418398;28;20265;-69
2023/08/13 08:51:17;;;;;;;3.38;2.33;;;;;;;-145.68;54.89;72336.66;10417766;28;20256;-68
2023/08/13 08:56:17;;;;;;;2.60;2.40;;;;;;;-145.68;54.44;72380.63;10415567;28;20670;-68
2023/08/13 09:01:17;;;;;;;5.50;2.25;;;;;;;-145.68;54.66;72378.63;10417863;28;20288;-69
2023/08/13 09:06:18;;;;;;;3.03;1.90;;;;;;;-145.68;50.53;72236.75;10415298;28;20192;-68
2023/08/13 09:11:18;;;;;;;2.03;1.90;;;;;;;-145.68;53.01;72370.63;10416687;28;20478;-68
2023/08/13 09:16:19;;;;;;;3.95;2.38;;;;;;;-145.68;52.30;72114.88;10416963;28;20192;-68
2023/08/13 09:21:24;;;;;;;4.43;2.20;;;;;;;-145.68;50.25;72086.91;10416760;28;20232;-68
2023/08/13 09:26:25;;;;;;;4.38;2.17;;;;;;;-145.68;49.38;71963.03;10416885;28;20216;-68
2023/08/13 09:31:25;;;;;;;4.60;2.42;;;;;;;-145.68;46.98;71873.09;10416244;28;20325;-68
2023/08/13 09:36:27;;;;;;;2.25;1.90;;;;;;;-145.68;47.79;71913.06;10415101;28;20206;-68
2023/08/13 09:41:27;;;;;;;3.45;2.10;;;;;;;-145.68;50.13;72092.91;10415912;28;20674;-68
2023/08/13 09:46:28;;;;;;;1.77;1.67;;;;;;;-145.68;49.55;71996.97;10416116;28;20189;-68
2023/08/13 09:51:32;;;;;;;4.07;2.42;;;;;;;-145.68;47.22;71998.97;10415738;28;20212;-69
2023/08/13 09:56:34;;;;;;;2.42;1.88;;;;;;;-145.68;48.25;71931.06;10415193;28;20247;-69
2023/08/13 10:01:35;;;;;;;2.95;1.70;;;;;;;-145.68;42.96;71697.28;10415668;28;20212;-68
2023/08/13 10:06:36;;;;;;;5.82;1.98;;;;;;;-145.68;43.35;71757.22;10413605;28;20203;-68
2023/08/13 10:11:37;;;;;;;3.72;2.10;;;;;;;-145.68;42.62;71763.22;10413964;28;20231;-69
2023/08/13 10:16:38;;;;;;;3.00;2.00;;;;;;;-145.68;41.59;71697.28;10414500;28;20185;-70
2023/08/13 10:21:39;;;;;;;2.10;1.80;;;;;;;-145.68;43.95;71943.03;10413368;28;20435;-69
2023/08/13 10:26:45;;;;;;;2.13;1.77;;;;;;;-145.68;41.87;71677.31;10412963;28;20200;-69
2023/08/13 10:31:55;;;;;;;1.60;1.50;;;;;;;-145.68;40.07;71573.41;10410803;28;20514;-70
2023/08/13 10:36:55;;;;;;;1.85;1.50;;;;;;;-145.68;37.08;71455.56;10413883;28;20304;-69
2023/08/13 10:41:56;;;;;;;5.20;2.00;;;;;;;-145.68;42.16;71825.16;10409859;28;20615;-68
2023/08/13 10:46:57;;;;;;;2.40;1.90;;;;;;;-145.68;39.68;71557.44;10408751;28;20848;-70
2023/08/13 10:52:00;;;;;;;1.98;1.80;;;;;;;-145.68;39.87;71635.34;10408632;28;20221;-70
2023/08/13 10:57:01;;;;;;;1.52;1.42;;;;;;;-145.68;37.72;71419.59;10400126;28;20220;-70
2023/08/13 11:02:19;;;;;;;2.20;1.48;;;;;;;-145.68;38.84;71657.34;10411398;28;20188;-69
2023/08/13 11:07:20;;;;;;;2.45;1.80;;;;;;;-145.68;38.09;71579.41;10410779;28;20299;-69
2023/08/13 11:12:21;;;;;;;2.45;1.75;;;;;;;-145.68;42.08;71643.34;10410245;28;20224;-70
2023/08/13 11:17:21;;;;;;;3.55;2.03;;;;;;;-145.68;43.71;71665.31;10430910;22;20843;-73
2023/08/13 11:22:24;;;;;;;2.33;1.70;;;;;;;-145.68;40.55;71537.47;10448821;28;20208;-70
2023/08/13 11:27:29;;;;;;;3.33;1.70;;;;;;;-145.68;41.49;71591.41;10453433;28;20224;-71
2023/08/13 11:32:29;;;;;;;5.45;1.88;;;;;;;-145.68;40.43;71589.41;10445667;28;20211;-74
2023/08/13 11:37:30;;;;;;;1.90;1.80;;;;;;;-145.68;39.31;71545.44;10411331;28;20228;-69
2023/08/13 11:42:30;;;;;;;2.75;1.80;;;;;;;-145.68;43.84;71739.25;10414881;28;20450;-70
2023/08/13 11:47:30;;;;;;;2.60;1.95;;;;;;;-145.68;43.78;71745.25;10452894;28;20207;-71
2023/08/13 11:52:31;;;;;;;3.47;2.13;;;;;;;-145.68;45.47;71827.16;10449967;28;20350;-69
2023/08/13 11:57:31;;;;;;;2.10;1.77;;;;;;;-145.68;44.57;71879.09;10440984;28;20467;-71
2023/08/13 12:02:31;;;;;;;2.47;1.88;;;;;;;-145.68;44.08;71845.13;10408971;28;20451;-73
2023/08/13 12:07:39;;;;;;;2.20;1.90;;;;;;;-145.68;44.33;71759.22;10410933;28;20661;-73
2023/08/13 12:12:40;;;;;;;2.83;2.30;;;;;;;-145.68;43.74;71865.13;10414731;28;20474;-72
2023/08/13 12:17:40;;;;;;;2.33;1.97;;;;;;;-145.68;44.40;71897.09;10450918;28;20318;-72
2023/08/13 12:22:40;;;;;;;3.42;2.08;;;;;;;-145.68;44.21;71821.16;10445927;28;20454;-72
2023/08/13 12:27:42;;;;;;;2.03;1.67;;;;;;;-145.68;44.45;71787.19;10402175;28;20364;-73
2023/08/13 12:32:43;;;;;;;2.60;1.98;;;;;;;-145.68;42.40;71663.31;10390495;28;20567;-71
2023/08/13 12:37:43;;;;;;;1.77;1.67;;;;;;;-145.68;41.81;71537.47;10408499;28;20552;-72
2023/08/13 12:42:43;;;;;;;1.90;1.80;;;;;;;-145.68;40.57;71501.50;10409385;28;20493;-71
2023/08/13 12:47:44;;;;;;;2.27;1.97;;;;;;;-145.68;41.35;71581.41;10413649;28;20530;-72
2023/08/13 12:52:44;;;;;;;2.40;2.20;;;;;;;-145.68;44.02;71743.25;10430000;28;21092;-73
2023/08/13 12:57:45;;;;;;;6.40;2.03;;;;;;;-145.68;41.74;71625.38;10457503;28;20477;-73
2023/08/13 13:02:45;;;;;;;2.23;1.90;;;;;;;-145.68;41.34;71577.41;10446438;28;20454;-73
2023/08/13 13:07:45;;;;;;;2.57;2.03;;;;;;;-145.68;43.17;71697.28;10458319;28;20967;-74
2023/08/13 13:12:46;;;;;;;3.60;1.80;;;;;;;-145.68;40.98;71635.34;10451607;28;20889;-72
2023/08/13 13:17:46;;;;;;;2.20;1.60;;;;;;;-145.68;41.47;71565.44;10454110;28;20232;-70
2023/08/13 13:22:46;;;;;;;2.15;1.95;;;;;;;-145.68;42.31;71569.44;10454135;28;20430;-71
2023/08/13 13:27:47;;;;;;;5.70;2.10;;;;;;;-145.68;42.98;71581.41;10447697;28;20226;-72
2023/08/13 13:32:47;;;;;;;2.87;1.70;;;;;;;-145.68;40.42;71553.44;10456510;28;20481;-70
2023/08/13 13:37:48;;;;;;;2.75;2.13;;;;;;;-145.68;39.68;71405.59;10444820;28;20483;-71
2023/08/13 13:42:49;;;;;;;2.63;1.67;;;;;;;-145.68;37.53;71291.75;10416290;28;20181;-71
2023/08/13 13:47:50;;;;;;;2.13;1.88;;;;;;;-145.68;36.06;71097.97;10414796;28;20639;-70
2023/08/13 13:52:51;;;;;;;2.67;2.10;;;;;;;-145.68;36.20;71123.94;10453409;28;20227;-71
2023/08/13 13:57:51;;;;;;;3.83;1.95;;;;;;;-145.68;37.38;71277.75;10453344;28;20235;-70
2023/08/13 14:02:52;;;;;;;3.27;1.50;;;;;;;-145.68;37.14;71251.78;10444845;28;20187;-71
2023/08/13 14:07:53;;;;;;;1.65;1.50;;;;;;;-145.68;38.96;71361.66;10439550;28;20474;-70
2023/08/13 14:12:53;;;;;;;1.97;1.73;;;;;;;-145.68;38.94;71353.66;10414979;28;20247;-70
2023/08/13 14:17:53;;;;;;;2.17;1.97;;;;;;;-145.68;38.38;71271.75;10424486;28;20569;-71
2023/08/13 14:22:55;;;;;;;1.90;1.80;;;;;;;-145.68;37.13;71153.91;10449885;28;20445;-70
2023/08/13 14:27:55;;;;;;;3.50;3.20;;;;;;;-145.68;34.37;70932.16;10455679;28;20218;-71
2023/08/13 14:32:56;;;;;;;2.57;1.73;;;;;;;-145.68;34.37;70874.25;10455507;28;20226;-70
2023/08/13 14:37:57;;;;;;;1.83;1.50;;;;;;;-145.68;33.20;70860.25;10455169;28;20461;-70
2023/08/13 14:42:57;;;;;;;2.03;1.70;;;;;;;-145.68;34.99;71056.03;10455102;28;20266;-71
2023/08/13 14:47:58;;;;;;;1.67;1.57;;;;;;;-145.68;37.71;71287.75;10454534;28;20816;-71
2023/08/13 14:52:58;;;;;;;2.23;1.73;;;;;;;-145.68;37.57;71325.69;10454532;28;20477;-71
2023/08/13 14:57:59;;;;;;;1.80;1.60;;;;;;;-145.68;39.63;71445.56;10454485;28;20458;-70
2023/08/13 15:02:59;;;;;;;2.38;1.67;;;;;;;-145.68;39.79;71457.56;10453053;28;20435;-71
2023/08/13 15:07:59;;;;;;;3.35;1.90;;;;;;;-145.68;38.07;71373.66;10452926;28;20203;-73
2023/08/13 15:13:00;;;;;;;5.05;1.80;;;;;;;-145.68;38.10;71379.63;10452041;28;20224;-73
2023/08/13 15:18:00;;;;;;;2.85;1.70;;;;;;;-145.68;37.23;71261.78;10427235;28;20706;-73
2023/08/13 15:23:01;;;;;;;1.63;1.53;;;;;;;-145.68;36.04;71197.84;10427025;28;20445;-73
2023/08/13 15:28:01;;;;;;;1.80;1.70;;;;;;;-145.68;37.98;71269.75;10449598;28;20484;-72
2023/08/13 15:33:01;;;;;;;2.80;1.77;;;;;;;-145.68;34.17;71008.06;10424447;28;20478;-73
2023/08/13 15:38:03;;;;;;;1.73;1.50;;;;;;;-145.68;35.12;71006.06;10411308;28;20474;-74
2023/08/13 15:43:03;;;;;;;2.90;1.77;;;;;;;-145.68;34.18;70922.19;10448567;28;20197;-73
2023/08/13 15:48:04;;;;;;;1.60;1.50;;;;;;;-145.68;33.45;70814.31;10452797;28;20203;-70
2023/08/13 15:53:04;;;;;;;2.22;1.70;;;;;;;-145.68;35.89;71095.97;10450350;28;20967;-70
2023/08/13 15:58:06;;;;;;;1.70;1.50;;;;;;;-145.68;36.89;71209.84;10411035;28;20262;-71
2023/08/13 16:03:07;;;;;;;1.42;1.33;;;;;;;-145.68;35.29;71056.03;10411033;28;20188;-71
2023/08/13 16:08:07;;;;;;;2.72;2.00;;;;;;;-145.68;35.54;71143.91;10409247;28;20596;-70
2023/08/13 16:13:08;;;;;;;2.03;1.80;;;;;;;-145.68;37.94;71349.66;10422913;28;20219;-72
2023/08/13 16:18:09;;;;;;;2.10;1.90;;;;;;;-145.68;40.56;71565.44;10452056;28;20579;-73
2023/08/13 16:23:09;;;;;;;2.20;2.00;;;;;;;-145.68;41.08;71585.41;10456230;28;20197;-72
2023/08/13 16:28:10;;;;;;;2.45;2.17;;;;;;;-145.68;41.46;71633.34;10458602;28;20489;-71
2023/08/13 16:33:10;;;;;;;2.58;2.33;;;;;;;-145.68;44.40;71767.22;10446810;28;20226;-72
2023/08/13 16:38:10;;;;;;;1.80;1.70;;;;;;;-145.68;42.86;71759.22;10459759;28;20704;-72
2023/08/13 16:43:11;;;;;;;2.22;2.03;;;;;;;-145.68;44.13;71745.25;10459907;28;20952;-72
2023/08/13 16:48:13;;;;;;;4.82;2.40;;;;;;;-145.68;44.83;71809.16;10457534;28;20298;-72
2023/08/13 16:53:14;;;;;;;3.30;2.20;;;;;;;-145.68;45.40;71853.13;10418598;28;20397;-72
2023/08/13 16:58:14;;;;;;;2.47;2.20;;;;;;;-145.68;44.34;71811.16;10417987;28;20216;-72
2023/08/13 17:03:14;;;;;;;2.47;2.20;;;;;;;-145.68;46.31;71849.13;10417636;28;20677;-72
2023/08/13 17:08:15;;;;;;;2.40;2.13;;;;;;;-145.68;46.33;71877.09;10417603;28;20948;-72
2023/08/13 17:13:15;;;;;;;4.30;2.37;;;;;;;-145.68;46.94;71879.09;10417449;28;21050;-71
2023/08/13 17:18:16;;;;;;;5.68;2.80;;;;;;;-145.68;52.59;72100.88;10448876;22;20877;-69
2023/08/13 17:23:16;;;;;;;6.53;3.00;;;;;;;-145.68;57.68;72220.78;10455441;28;20206;-69
2023/08/13 17:28:17;;;;;;;2.42;2.20;;;;;;;-145.68;57.54;72098.88;10458071;28;20208;-69
2023/08/13 17:33:17;;;;;;;3.42;2.60;;;;;;;-145.68;56.44;72068.91;10457375;28;20307;-69
2023/08/13 17:38:17;;;;;;;3.30;2.67;;;;;;;-145.68;58.65;72128.84;10458007;28;20216;-69
2023/08/13 17:43:18;;;;;;;3.90;2.70;;;;;;;-145.68;63.15;72272.72;10457391;28;20430;-69
2023/08/13 17:48:18;;;;;;;8.48;5.13;;;;;;;-145.68;62.45;72220.78;10457149;28;20580;-69
2023/08/13 17:53:18;;;;;;;5.30;2.58;;;;;;;-145.68;65.17;72312.69;10456928;28;20650;-68
2023/08/13 17:58:19;;;;;;;3.40;3.08;;;;;;;-145.68;68.22;72320.69;10456672;28;20558;-68
2023/08/13 18:03:19;;;;;;;2.85;2.63;;;;;;;-145.68;64.98;72326.69;10456799;28;20184;-67
2023/08/13 18:08:20;;;;;;;7.22;6.05;;;;;;;-145.68;69.51;72372.63;10455870;28;20207;-68
2023/08/13 18:13:20;;;;;;;7.53;5.55;;;;;;;-145.68;73.03;72428.59;10441559;28;20721;-68
2023/08/13 18:18:20;;;;;;;20.63;15.60;;;;;;;-145.68;75.76;72474.53;10433961;28;20228;-68
2023/08/13 18:23:21;;;;;;;3.25;2.92;;;;;;;-145.68;79.85;72580.47;10433556;28;20188;-68
2023/08/13 18:28:21;;;;;;;2.90;2.70;;;;;;;-145.68;79.54;72584.44;10432769;28;20223;-68
2023/08/13 18:33:22;;;;;;;5.55;3.40;;;;;;;-145.68;78.83;72608.44;10432337;28;20208;-68
2023/08/13 18:38:22;;;;;;;4.68;3.28;;;;;;;-145.68;87.22;72646.41;10435204;28;20215;-68
2023/08/13 18:43:23;;;;;;;3.78;2.90;;;;;;;-145.68;83.54;72654.41;10440905;28;20194;-67
2023/08/13 18:48:23;;;;;;;10.75;2.97;;;;;;;-145.68;82.13;72674.38;10435444;28;20204;-68
2023/08/13 18:53:24;;;;;;;7.50;2.83;;;;;;;-145.68;85.65;72718.34;10433768;28;20224;-68
2023/08/13 18:58:25;;;;;;;7.45;2.95;;;;;;;-145.68;83.56;72690.38;10443618;28;20212;-68
2023/08/13 19:03:25;;;;;;;3.78;3.08;;;;;;;-145.68;84.70;72748.31;10454088;28;20528;-68
2023/08/13 19:08:26;;;;;;;6.20;2.63;;;;;;;-145.68;86.17;72766.31;10451904;28;20253;-68
2023/08/13 19:13:26;;;;;;;4.10;3.20;;;;;;;-145.68;84.99;72776.28;10453663;28;20215;-68
2023/08/13 19:18:26;;;;;;;9.80;3.08;;;;;;;-145.68;90.83;72788.28;10435533;28;20242;-69
2023/08/13 19:23:27;;;;;;;5.70;2.83;;;;;;;-145.68;93.27;72828.25;10434279;28;20275;-68
2023/08/13 19:28:27;;;;;;;4.53;3.15;;;;;;;-145.68;94.60;72822.25;10435511;28;20227;-69
2023/08/13 19:33:28;;;;;;;4.50;3.28;;;;;;;-145.68;99.25;72840.25;10429179;28;20221;-68
2023/08/13 19:38:28;;;;;;;4.35;3.25;;;;;;;-145.68;97.47;72848.25;10433249;28;20211;-69
2023/08/13 19:43:28;;;;;;;5.97;3.05;;;;;;;-145.68;97.14;72854.25;10430775;28;20263;-68
2023/08/13 19:48:29;;;;;;;6.07;3.08;;;;;;;-145.68;96.75;72856.22;10426360;28;20216;-68
2023/08/13 19:53:29;;;;;;;7.45;2.90;;;;;;;-145.68;96.35;72864.22;10429679;28;20216;-70
2023/08/13 19:58:29;;;;;;;3.45;3.03;;;;;;;-145.68;98.12;72876.22;10435020;28;20213;-70
2023/08/13 20:03:30;;;;;;;6.43;3.60;;;;;;;-145.68;99.44;72900.19;10431508;28;20190;-70
2023/08/13 20:08:30;;;;;;;6.47;4.00;;;;;;;-145.68;99.42;72910.19;10431070;28;20216;-70
2023/08/13 20:13:30;;;;;;;3.83;3.42;;;;;;;-145.68;100.00;72928.19;10451779;28;20691;-70
2023/08/13 20:18:32;;;;;;;3.90;3.42;;;;;;;-145.68;100.00;72940.16;10432782;28;20608;-70
2023/08/13 20:23:33;;;;;;;5.75;4.10;;;;;;;-145.68;100.00;72958.16;10451743;28;20207;-70
2023/08/13 20:28:36;;;;;;;7.93;3.60;;;;;;;-145.68;100.00;72970.16;10450504;28;20580;-70
2023/08/13 20:33:38;;;;;;;4.28;3.47;;;;;;;-145.68;100.00;72994.13;10451407;28;20589;-69
2023/08/13 20:38:39;;;;;;;4.95;3.67;;;;;;;-145.68;100.00;73014.13;10450195;28;20270;-70
2023/08/13 20:43:39;;;;;;;5.55;3.70;;;;;;;-145.68;100.00;73008.13;10451288;28;20278;-70
2023/08/13 20:48:40;;;;;;;5.65;3.35;;;;;;;-145.68;100.00;73012.13;10451130;28;20211;-70
2023/08/13 20:53:40;;;;;;;6.85;3.60;;;;;;;-145.68;100.00;73018.13;10448552;28;20299;-70
2023/08/13 20:58:40;;;;;;;3.75;3.20;;;;;;;-145.68;100.00;73016.13;10450946;28;20208;-69
2023/08/13 21:03:41;;;;;;;6.88;3.55;;;;;;;-145.68;100.00;73016.13;10450305;28;20195;-70
2023/08/13 21:08:41;;;;;;;3.97;3.58;;;;;;;-145.68;100.00;73032.09;10454274;28;20586;-70
2023/08/13 21:13:41;;;;;;;7.53;3.50;;;;;;;-145.68;100.00;73024.13;10457062;28;20585;-70
2023/08/13 21:18:42;;;;;;;4.13;3.50;;;;;;;-145.68;100.00;73026.09;10458392;28;20224;-69
2023/08/13 21:23:42;;;;;;;4.97;3.60;;;;;;;-145.68;100.00;73034.09;10457073;28;20204;-69
2023/08/13 21:28:43;;;;;;;8.88;3.70;;;;;;;-145.68;100.00;73054.09;10458072;28;20210;-70
2023/08/13 21:33:43;;;;;;;5.50;3.58;;;;;;;-145.68;100.00;73060.09;10457283;28;20238;-69
2023/08/13 21:38:43;;;;;;;4.32;3.78;;;;;;;-145.68;100.00;73058.09;10420599;28;20220;-70
2023/08/13 21:43:44;;;;;;;4.38;3.55;;;;;;;-145.68;100.00;73058.09;10422726;28;20210;-70
2023/08/13 21:48:44;;;;;;;6.38;3.70;;;;;;;-145.68;100.00;73070.06;10457112;28;20218;-69
2023/08/13 21:53:46;;;;;;;3.65;3.30;;;;;;;-145.68;100.00;73078.06;10457720;28;20220;-69
2023/08/13 21:58:46;;;;;;;7.10;4.05;;;;;;;-145.68;100.00;73100.06;10456980;28;20232;-69
2023/08/13 22:03:47;;;;;;;7.75;4.43;;;;;;;-145.68;100.00;73110.06;10456718;28;20192;-69
2023/08/13 22:08:47;;;;;;;5.63;3.83;;;;;;;-145.68;100.00;73120.03;10455491;28;20693;-70
2023/08/13 22:13:47;;;;;;;9.20;3.75;;;;;;;-145.68;100.00;73112.03;10456148;28;20212;-69
2023/08/13 22:18:48;;;;;;;7.35;3.95;;;;;;;-145.68;100.00;73108.06;10453774;28;20235;-70
2023/08/13 22:23:48;;;;;;;7.43;4.55;;;;;;;-145.68;100.00;73120.03;10455260;28;20535;-69
2023/08/13 22:28:48;;;;;;;9.48;5.20;;;;;;;-145.68;100.00;73128.03;10454622;28;20649;-70
2023/08/13 22:33:49;;;;;;;4.95;3.75;;;;;;;-145.68;100.00;73124.03;10455631;28;20227;-70
2023/08/13 22:38:49;;;;;;;4.72;4.30;;;;;;;-145.68;100.00;73150.03;10454157;28;20617;-70
2023/08/13 22:43:50;;;;;;;4.70;4.07;;;;;;;-145.68;100.00;73150.03;10455430;28;20187;-70